Time,TemperatureF,DewpointF,PressureIn,WindDirection,WindDirectionDegrees,WindSpeedMPH,WindSpeedGustMPH,Humidity,HourlyPrecipIn,Conditions,Clouds,dailyrainin,SoftwareType,DateUTC
2013-06-14 00:14:00,53.0,46.0,30.02,East,79,0.0,0.0,77,0.00,,,0.00,weatherlink.com 1.10,2013-06-14 07:14:00,
2013-06-14 00:29:00,52.4,45.0,30.01,East,79,0.0,0.0,77,0.00,,,0.00,weatherlink.com 1.10,2013-06-14 07:29:00,
2013-06-14 00:44:00,52.1,46.0,30.01,East,79,0.0,0.0,79,0.00,,,0.00,weatherlink.com 1.10,2013-06-14 07:44:00,
2013-06-14 00:59:00,51.7,46.0,30.01,East,79,0.0,0.0,80,0.00,,,0.00,weatherlink.com 1.10,2013-06-14 07:59:00,
2013-06-14 01:14:00,51.4,46.0,30.00,East,79,0.0,0.0,81,0.00,,,0.00,weatherlink.com 1.10,2013-06-14 08:14:00,
2013-06-14 01:29:00,51.1,45.0,30.00,East,79,0.0,2.0,81,0.00,,,0.00,weatherlink.com 1.10,2013-06-14 08:29:00,
2013-06-14 01:44:00,51.0,46.0,29.99,East,79,0.0,1.0,82,0.00,,,0.00,weatherlink.com 1.10,2013-06-14 08:44:00,
2013-06-14 01:59:00,50.9,46.0,29.99,ESE,111,0.0,2.0,82,0.00,,,0.00,weatherlink.com 1.10,2013-06-14 08:59:00,
2013-06-14 02:14:00,51.0,45.0,30.00,SE,134,0.0,2.0,81,0.00,,,0.00,weatherlink.com 1.10,2013-06-14 09:14:00,
2013-06-14 02:29:00,51.0,45.0,29.99,WSW,244,0.0,2.0,81,0.00,,,0.00,weatherlink.com 1.10,2013-06-14 09:29:00,
2013-06-14 02:44:00,51.2,46.0,29.98,WSW,244,1.0,3.0,82,0.00,,,0.00,weatherlink.com 1.10,2013-06-14 09:44:00,
2013-06-14 02:59:00,51.8,46.0,29.98,East,81,0.0,3.0,80,0.00,,,0.00,weatherlink.com 1.10,2013-06-14 09:59:00,
2013-06-14 03:14:00,52.2,46.0,29.98,South,181,0.0,3.0,79,0.00,,,0.00,weatherlink.com 1.10,2013-06-14 10:14:00,
2013-06-14 03:29:00,52.5,46.0,29.97,South,180,0.0,1.0,78,0.00,,,0.00,weatherlink.com 1.10,2013-06-14 10:29:00,
2013-06-14 03:44:00,52.8,45.0,29.97,South,188,0.0,3.0,76,0.00,,,0.00,weatherlink.com 1.10,2013-06-14 10:44:00,
2013-06-14 03:59:00,53.2,45.0,29.97,East,95,0.0,2.0,75,0.00,,,0.00,weatherlink.com 1.10,2013-06-14 10:59:00,
2013-06-14 04:14:00,54.2,45.0,29.96,South,182,0.0,2.0,72,0.00,,,0.00,weatherlink.com 1.10,2013-06-14 11:14:00,
2013-06-14 04:29:00,56.9,44.0,29.96,South,181,0.0,4.0,63,0.00,,,0.00,weatherlink.com 1.10,2013-06-14 11:29:00,
2013-06-14 04:45:00,56.9,45.0,29.96,SW,216,0.0,3.0,64,0.00,,,0.00,weatherlink.com 1.10,2013-06-14 11:45:00,
2013-06-14 05:00:00,56.7,44.0,29.96,East,87,1.0,3.0,63,0.00,,,0.00,weatherlink.com 1.10,2013-06-14 12:00:00,
2013-06-14 05:15:00,56.2,43.0,29.96,SSE,163,0.0,2.0,62,0.00,,,0.00,weatherlink.com 1.10,2013-06-14 12:15:00,
2013-06-14 05:30:00,55.7,43.0,29.96,SSE,163,2.0,2.0,63,0.00,,,0.00,weatherlink.com 1.10,2013-06-14 12:30:00,
2013-06-14 05:45:00,55.1,43.0,29.96,SSE,163,0.0,1.0,64,0.00,,,0.00,weatherlink.com 1.10,2013-06-14 12:45:00,
2013-06-14 06:00:00,54.6,43.0,29.96,SSE,163,0.0,0.0,64,0.00,,,0.00,weatherlink.com 1.10,2013-06-14 13:00:00,
2013-06-14 06:15:00,54.6,43.0,29.96,SSE,163,0.0,1.0,66,0.00,,,0.00,weatherlink.com 1.10,2013-06-14 13:15:00,
2013-06-14 06:30:00,55.0,45.0,29.96,SSE,163,0.0,1.0,70,0.00,,,0.00,weatherlink.com 1.10,2013-06-14 13:30:00,
2013-06-14 06:45:00,55.7,45.0,29.96,SSE,163,0.0,0.0,67,0.00,,,0.00,weatherlink.com 1.10,2013-06-14 13:45:00,
2013-06-14 07:00:00,56.4,47.0,29.95,SSE,163,0.0,0.0,71,0.00,,,0.00,weatherlink.com 1.10,2013-06-14 14:00:00,
2013-06-14 07:15:00,59.5,48.0,29.95,SSE,163,0.0,1.0,65,0.00,,,0.00,weatherlink.com 1.10,2013-06-14 14:15:00,
2013-06-14 07:30:00,62.8,49.0,29.95,SSE,161,0.0,1.0,61,0.00,,,0.00,weatherlink.com 1.10,2013-06-14 14:30:00,
2013-06-14 07:45:00,65.4,50.0,29.95,SSE,154,0.0,1.0,57,0.00,,,0.00,weatherlink.com 1.10,2013-06-14 14:45:00,
2013-06-14 08:00:00,65.6,48.0,29.96,SSE,154,0.0,0.0,54,0.00,,,0.00,weatherlink.com 1.10,2013-06-14 15:00:00,
2013-06-14 08:15:00,66.1,48.0,29.95,SSE,153,0.0,0.0,52,0.00,,,0.00,weatherlink.com 1.10,2013-06-14 15:15:00,
2013-06-14 08:30:00,68.6,49.0,29.95,SSE,153,0.0,1.0,50,0.00,,,0.00,weatherlink.com 1.10,2013-06-14 15:30:00,
2013-06-14 08:45:00,71.8,40.0,29.94,ESE,105,0.0,1.0,32,0.00,,,0.00,weatherlink.com 1.10,2013-06-14 15:45:00,
2013-06-14 09:00:00,74.2,45.0,29.95,ESE,105,0.0,1.0,36,0.00,,,0.00,weatherlink.com 1.10,2013-06-14 16:00:00,
2013-06-14 09:15:00,75.6,36.0,29.94,NNW,348,0.0,5.0,24,0.00,,,0.00,weatherlink.com 1.10,2013-06-14 16:15:00,
2013-06-14 09:30:00,77.0,37.0,29.93,ENE,60,0.0,3.0,24,0.00,,,0.00,weatherlink.com 1.10,2013-06-14 16:30:00,
2013-06-14 09:45:00,77.9,38.0,29.94,WNW,286,0.0,2.0,24,0.00,,,0.00,weatherlink.com 1.10,2013-06-14 16:45:00,
2013-06-14 10:00:00,77.6,35.0,29.94,SSE,163,1.0,3.0,21,0.00,,,0.00,weatherlink.com 1.10,2013-06-14 17:00:00,
2013-06-14 10:15:00,78.4,40.0,29.93,ESE,107,0.0,7.0,25,0.00,,,0.00,weatherlink.com 1.10,2013-06-14 17:15:00,
2013-06-14 10:30:00,80.6,32.0,29.92,South,178,1.0,3.0,17,0.00,,,0.00,weatherlink.com 1.10,2013-06-14 17:30:00,
2013-06-14 10:45:00,78.9,37.0,29.93,NNE,32,0.0,6.0,22,0.00,,,0.00,weatherlink.com 1.10,2013-06-14 17:45:00,
2013-06-14 11:00:00,80.6,33.0,29.92,ENE,73,0.0,6.0,18,0.00,,,0.00,weatherlink.com 1.10,2013-06-14 18:00:00,
2013-06-14 11:15:00,81.9,36.0,29.92,SSW,197,0.0,6.0,19,0.00,,,0.00,weatherlink.com 1.10,2013-06-14 18:15:00,
2013-06-14 11:30:00,81.7,33.0,29.92,WSW,248,0.0,7.0,17,0.00,,,0.00,weatherlink.com 1.10,2013-06-14 18:30:00,
2013-06-14 11:45:00,82.8,32.0,29.92,East,90,0.0,6.0,16,0.00,,,0.00,weatherlink.com 1.10,2013-06-14 18:45:00,
2013-06-14 12:01:00,84.7,38.0,29.91,East,89,0.0,6.0,19,0.00,,,0.00,weatherlink.com 1.10,2013-06-14 19:01:00,
2013-06-14 12:16:00,84.5,38.0,29.91,West,275,1.0,5.0,19,0.00,,,0.00,weatherlink.com 1.10,2013-06-14 19:16:00,
2013-06-14 12:31:00,85.0,40.0,29.90,East,80,5.0,7.0,20,0.00,,,0.00,weatherlink.com 1.10,2013-06-14 19:31:00,
2013-06-14 12:46:00,84.1,38.0,29.90,ESE,108,1.0,7.0,19,0.00,,,0.00,weatherlink.com 1.10,2013-06-14 19:46:00,
2013-06-14 13:01:00,85.8,39.0,29.89,SSW,192,2.0,6.0,19,0.00,,,0.00,weatherlink.com 1.10,2013-06-14 20:01:00,
2013-06-14 13:16:00,85.9,39.0,29.89,SW,217,1.0,5.0,19,0.00,,,0.00,weatherlink.com 1.10,2013-06-14 20:16:00,
2013-06-14 13:31:00,85.3,40.0,29.89,ENE,58,1.0,8.0,20,0.00,,,0.00,weatherlink.com 1.10,2013-06-14 20:31:00,
2013-06-14 13:46:00,84.8,42.0,29.88,NNE,17,4.0,7.0,22,0.00,,,0.00,weatherlink.com 1.10,2013-06-14 20:46:00,
2013-06-14 14:01:00,84.7,44.0,29.88,NNE,32,1.0,8.0,24,0.00,,,0.00,weatherlink.com 1.10,2013-06-14 21:01:00,
2013-06-14 14:16:00,85.3,45.0,29.88,SW,214,6.0,8.0,24,0.00,,,0.00,weatherlink.com 1.10,2013-06-14 21:16:00,
2013-06-14 23:56:00,56.1,41.0,29.83,West,281,0.0,0.0,57,0.00,,,0.00,weatherlink.com 1.10,2013-06-15 06:56:00,